createdAt,value
2018-09-18T00:01:51.811Z,1016.2
2018-09-18T00:06:51.119Z,1016.1
2018-09-18T00:11:51.529Z,1016
2018-09-18T00:16:51.928Z,1016
2018-09-18T00:21:51.124Z,1016
2018-09-18T00:26:51.940Z,1016
2018-09-18T00:31:50.815Z,1015.8
2018-09-18T00:36:51.695Z,1015.9
2018-09-18T00:41:51.868Z,1015.8
2018-09-18T00:46:50.753Z,1015.9
2018-09-18T00:51:51.574Z,1015.8
2018-09-18T00:56:50.865Z,1015.8
2018-09-18T01:01:51.191Z,1015.7
2018-09-18T01:06:52.041Z,1015.7
2018-09-18T01:11:50.882Z,1015.7
2018-09-18T01:16:51.208Z,1015.7
2018-09-18T01:21:52.002Z,1015.6
2018-09-18T01:26:51.350Z,1015.6
2018-09-18T01:31:51.925Z,1015.6
2018-09-18T01:36:51.072Z,1015.6
2018-09-18T01:41:51.238Z,1015.5
2018-09-18T01:46:51.865Z,1015.5
2018-09-18T01:51:50.965Z,1015.4
2018-09-18T01:56:51.962Z,1015.4
2018-09-18T02:01:50.852Z,1015.4
2018-09-18T02:06:51.668Z,1015.5
2018-09-18T02:11:51.980Z,1015.4
2018-09-18T02:16:50.841Z,1015.4
2018-09-18T02:21:51.565Z,1015.4
2018-09-18T02:26:50.897Z,1015.3
2018-09-18T02:31:51.317Z,1015.2
2018-09-18T02:36:52.100Z,1015.2
2018-09-18T02:41:50.868Z,1015.2
2018-09-18T02:46:51.323Z,1015.2
2018-09-18T02:51:52.022Z,1015.1
2018-09-18T02:56:51.352Z,1015.1
2018-09-18T03:01:51.883Z,1015
2018-09-18T03:06:50.972Z,1015.1
2018-09-18T03:11:51.356Z,1015
2018-09-18T03:16:51.892Z,1015
2018-09-18T03:21:50.931Z,1015
2018-09-18T03:26:51.910Z,1014.9
2018-09-18T03:31:50.886Z,1014.9
2018-09-18T03:36:51.507Z,1014.9
2018-09-18T03:41:51.918Z,1014.8
2018-09-18T03:46:50.864Z,1014.7
2018-09-18T03:51:51.398Z,1014.7
2018-09-18T03:56:50.907Z,1014.7
2018-09-18T04:01:51.252Z,1014.8
2018-09-18T04:06:52.047Z,1014.7
2018-09-18T04:11:50.896Z,1014.5
2018-09-18T04:16:51.291Z,1014.6
2018-09-18T04:21:52.058Z,1014.5
2018-09-18T04:26:51.444Z,1014.4
2018-09-18T04:31:51.853Z,1014.5
2018-09-18T04:36:51.000Z,1014.6
2018-09-18T04:41:51.161Z,1014.4
2018-09-18T04:46:51.730Z,1014.4
2018-09-18T04:51:50.983Z,1014.4
2018-09-18T04:56:51.881Z,1014.4
2018-09-18T05:01:50.854Z,1014.4
2018-09-18T05:06:51.496Z,1014.4
2018-09-18T05:11:51.116Z,1014.3
2018-09-18T05:16:51.506Z,1014.2
2018-09-18T05:21:50.863Z,1014.2
2018-09-18T05:26:51.645Z,1014.2
2018-09-18T05:31:50.834Z,1014.3
2018-09-18T05:36:51.259Z,1014.3
2018-09-18T05:41:51.896Z,1014.3
2018-09-18T05:46:50.779Z,1014.3
2018-09-18T05:51:51.162Z,1014.2
2018-09-18T05:56:50.777Z,1014.2
2018-09-18T06:01:51.143Z,1014.3
2018-09-18T06:06:51.737Z,1014.2
2018-09-18T06:11:50.792Z,1014.2
2018-09-18T06:16:51.076Z,1014.2
2018-09-18T06:21:51.627Z,1014.2
2018-09-18T06:26:51.138Z,1014.2
2018-09-18T06:31:51.356Z,1014.2
2018-09-18T06:36:52.459Z,1014.2
2018-09-18T06:41:51.058Z,1014.1
2018-09-18T06:46:51.373Z,1014.2
2018-09-18T06:51:50.799Z,1014.1
2018-09-18T06:56:51.366Z,1014.1
2018-09-18T07:01:50.701Z,1014.1
2018-09-18T07:06:51.184Z,1014.1
2018-09-18T07:11:51.362Z,1014.1
2018-09-18T07:16:50.681Z,1014
2018-09-18T07:21:51.140Z,1014
2018-09-18T07:26:50.680Z,1014
2018-09-18T07:31:51.015Z,1014.1
2018-09-18T07:36:51.565Z,1014
2018-09-18T07:41:50.712Z,1014
2018-09-18T07:46:51.025Z,1013.9
2018-09-18T07:51:51.427Z,1014
2018-09-18T07:56:51.049Z,1013.9
2018-09-18T08:01:51.337Z,1013.9
2018-09-18T08:06:50.889Z,1013.8
2018-09-18T08:11:51.079Z,1013.9
2018-09-18T08:16:51.428Z,1013.8
2018-09-18T08:21:50.895Z,1013.7
2018-09-18T08:26:51.427Z,1013.7
2018-09-18T08:31:50.696Z,1013.7
2018-09-18T08:36:51.150Z,1013.7
2018-09-18T08:41:51.368Z,1013.7
2018-09-18T08:46:50.804Z,1013.6
2018-09-18T08:51:52.152Z,1013.6
2018-09-18T08:56:50.863Z,1013.6
2018-09-18T09:01:51.204Z,1013.5
2018-09-18T09:06:51.866Z,1013.6
2018-09-18T09:11:50.847Z,1013.7
2018-09-18T09:16:51.035Z,1013.6
2018-09-18T09:21:52.901Z,1013.7
2018-09-18T09:26:51.892Z,1013.7
2018-09-18T09:31:51.368Z,1013.7
2018-09-18T09:36:51.279Z,1013.6
2018-09-18T09:41:51.045Z,1013.6
2018-09-18T09:46:51.349Z,1013.6
2018-09-18T09:51:50.861Z,1013.6
2018-09-18T09:56:52.032Z,1013.5
2018-09-18T10:01:50.753Z,1013.4
2018-09-18T10:06:51.204Z,1013.5
2018-09-18T10:11:51.449Z,1013.5
2018-09-18T10:16:51.202Z,1013.5
2018-09-18T10:21:51.558Z,1013.5
2018-09-18T10:26:56.600Z,1013.4
2018-09-18T10:31:51.110Z,1013.5
2018-09-18T10:36:52.106Z,1013.3
2018-09-18T10:41:52.067Z,1013.5
2018-09-18T10:46:51.515Z,1013.4
2018-09-18T10:51:51.485Z,1013.5
2018-09-18T10:56:51.141Z,1013.4
2018-09-18T11:01:51.953Z,1013.3
2018-09-18T11:06:51.046Z,1013.3
2018-09-18T11:11:51.992Z,1013.3
2018-09-18T11:16:52.130Z,1013.3
2018-09-18T11:21:51.662Z,1013.1
2018-09-18T11:26:51.568Z,1013.2
2018-09-18T11:31:50.798Z,1013
2018-09-18T11:36:51.174Z,1012.9
2018-09-18T11:41:51.394Z,1013
2018-09-18T11:46:51.439Z,1013.1
2018-09-18T11:51:51.196Z,1012.9
2018-09-18T11:56:52.091Z,1013
2018-09-18T12:01:51.022Z,1012.9
2018-09-18T12:06:51.668Z,1012.9
2018-09-18T12:11:50.808Z,1012.9
2018-09-18T12:16:51.363Z,1012.8
2018-09-18T12:21:51.547Z,1012.8
2018-09-18T12:26:51.105Z,1012.8
2018-09-18T12:31:51.414Z,1012.6
2018-09-18T12:36:51.243Z,1012.6
2018-09-18T12:41:52.638Z,1012.5
2018-09-18T12:46:51.392Z,1012.5
2018-09-18T12:51:50.869Z,1012.4
2018-09-18T12:56:52.495Z,1012.4
2018-09-18T13:01:50.720Z,1012.3
2018-09-18T13:06:51.921Z,1012.4
2018-09-18T13:11:51.426Z,1012.3
2018-09-18T13:16:50.723Z,1012.3
2018-09-18T13:21:51.174Z,1012.2
2018-09-18T13:26:50.731Z,1012.2
2018-09-18T13:31:51.072Z,1012.2
2018-09-18T13:36:51.500Z,1012.2
2018-09-18T13:41:50.708Z,1012.2
2018-09-18T13:46:51.071Z,1012.3
2018-09-18T13:51:52.180Z,1012.4
2018-09-18T13:56:53.175Z,1012.3
2018-09-18T14:01:53.267Z,1012.3
2018-09-18T14:06:51.265Z,1012.4
2018-09-18T14:11:51.078Z,1012.3
2018-09-18T14:16:51.747Z,1012.3
2018-09-18T14:21:50.788Z,1012.4
2018-09-18T14:26:51.978Z,1012.3
2018-09-18T14:31:50.673Z,1012.4
2018-09-18T14:36:51.158Z,1012.3
2018-09-18T14:41:51.772Z,1012.4
2018-09-18T14:46:51.659Z,1012.4
2018-09-18T14:51:51.089Z,1012.4
2018-09-18T14:56:50.682Z,1012.4
2018-09-18T15:01:50.951Z,1012.5
2018-09-18T15:06:52.223Z,1012.5
2018-09-18T15:11:50.684Z,1012.6
2018-09-18T15:16:50.952Z,1012.7
2018-09-18T15:21:51.662Z,1012.7
2018-09-18T15:26:50.967Z,1012.8
2018-09-18T15:31:51.309Z,1012.7
2018-09-18T15:36:50.737Z,1012.7
2018-09-18T15:41:50.965Z,1012.7
2018-09-18T15:46:51.246Z,1012.9
2018-09-18T15:51:52.257Z,1012.9
2018-09-18T15:56:51.303Z,1013
2018-09-18T16:01:51.688Z,1013
2018-09-18T16:06:51.090Z,1012.9
2018-09-18T16:11:51.309Z,1013.1
2018-09-18T16:16:52.191Z,1013.1
2018-09-18T16:21:51.023Z,1013.1
2018-09-18T16:26:50.693Z,1013.2
2018-09-18T16:31:50.913Z,1013.2
2018-09-18T16:36:51.930Z,1013.3
2018-09-18T16:41:51.599Z,1013.2
2018-09-18T16:46:51.451Z,1013.3
2018-09-18T16:51:51.347Z,1013.3
2018-09-18T16:56:50.987Z,1013.3
2018-09-18T17:01:51.232Z,1013.4
2018-09-18T17:06:50.779Z,1013.4
2018-09-18T17:11:51.073Z,1013.5
2018-09-18T17:16:51.313Z,1013.5
2018-09-18T17:21:50.815Z,1013.6
2018-09-18T17:26:51.307Z,1013.7
2018-09-18T17:31:51.712Z,1013.7
2018-09-18T17:36:51.082Z,1013.8
2018-09-18T17:41:51.336Z,1013.9
2018-09-18T17:46:51.659Z,1014
2018-09-18T17:51:51.088Z,1014.2
2018-09-18T17:56:51.029Z,1014.3
2018-09-18T18:01:50.988Z,1014.4
2018-09-18T18:06:51.553Z,1014.5
2018-09-18T18:11:51.029Z,1014.6
2018-09-18T18:16:51.017Z,1014.7
2018-09-18T18:21:51.450Z,1014.9
2018-09-18T18:26:51.093Z,1015.1
2018-09-18T18:31:51.498Z,1015.2
2018-09-18T18:36:50.954Z,1015.3
2018-09-18T18:41:50.979Z,1015.4
2018-09-18T18:46:51.580Z,1015.5
2018-09-18T18:51:50.782Z,1015.7
2018-09-18T18:56:51.838Z,1015.7
2018-09-18T19:01:51.576Z,1015.8
2018-09-18T19:06:52.834Z,1015.9
2018-09-18T19:11:51.331Z,1016
2018-09-18T19:16:51.623Z,1016
2018-09-18T19:21:51.124Z,1016.1
2018-09-18T19:26:50.709Z,1016.2
2018-09-18T19:31:50.980Z,1016.2
2018-09-18T19:36:51.412Z,1016.3
2018-09-18T19:41:50.873Z,1016.4
2018-09-18T19:46:50.946Z,1016.4
2018-09-18T19:51:51.640Z,1016.5
2018-09-18T19:56:50.989Z,1016.5
2018-09-18T20:01:51.313Z,1016.5
2018-09-18T20:06:50.752Z,1016.5
2018-09-18T20:11:51.003Z,1016.6
2018-09-18T20:16:51.436Z,1016.7
2018-09-18T20:21:50.769Z,1016.8
2018-09-18T20:26:51.370Z,1016.9
2018-09-18T20:31:50.682Z,1017
2018-09-18T20:36:51.111Z,1017
2018-09-18T20:41:52.334Z,1017
2018-09-18T20:46:50.643Z,1017
2018-09-18T20:51:51.110Z,1017.1
2018-09-18T20:56:50.700Z,1017.1
2018-09-18T21:01:51.019Z,1017.1
2018-09-18T21:06:51.542Z,1017.1
2018-09-18T21:11:50.755Z,1017.1
2018-09-18T21:16:51.015Z,1017.1
2018-09-18T21:21:51.508Z,1017.1
2018-09-18T21:26:51.065Z,1017.1
2018-09-18T21:31:51.334Z,1017.2
2018-09-18T21:36:51.014Z,1017.3
2018-09-18T21:41:51.031Z,1017.3
2018-09-18T21:46:51.334Z,1017.3
2018-09-18T21:51:50.823Z,1017.3
2018-09-18T21:56:51.440Z,1017.4
2018-09-18T22:01:50.654Z,1017.4
2018-09-18T22:06:51.481Z,1017.4
2018-09-18T22:11:51.397Z,1017.5
2018-09-18T22:16:50.702Z,1017.5
2018-09-18T22:21:51.130Z,1017.6
2018-09-18T22:26:50.750Z,1017.6
2018-09-18T22:31:51.002Z,1017.6
2018-09-18T22:36:52.067Z,1017.6
2018-09-18T22:41:50.616Z,1017.9
2018-09-18T22:46:51.050Z,1018.1
2018-09-18T22:51:51.373Z,1018.1
2018-09-18T22:56:51.014Z,1018.1
2018-09-18T23:01:51.304Z,1018.2
2018-09-18T23:06:50.812Z,1018.2
2018-09-18T23:11:51.020Z,1018.2
2018-09-18T23:16:51.268Z,1018.2
2018-09-18T23:21:50.747Z,1018.2
2018-09-18T23:26:51.322Z,1018.3
2018-09-18T23:31:50.622Z,1018.3
2018-09-18T23:36:51.101Z,1018.3
2018-09-18T23:41:51.365Z,1018.3
2018-09-18T23:46:51.993Z,1018.4
2018-09-18T23:51:51.080Z,1018.4
2018-09-18T23:56:50.615Z,1018.4
